Time;durP1;ratioP1;P1;durP2;ratioP2;P2;SDS_P1;SDS_P2;PMS_P1;PMS_P2;Temp;Humidity;BMP_temperature;BMP_pressure;BME280_temperature;BME280_humidity;BME280_pressure;Samples;Min_cycle;Max_cycle;Signal;HPM_P1;HPM_P2
2022/10/04 00:02:04;;;;;;;3.00;1.13;;;12.70;94.60;;;12.88;59.66;95184.78;5029785;28;20541;-56
2022/10/04 00:04:35;;;;;;;1.90;1.33;;;12.70;94.50;;;12.88;60.04;95182.97;5025475;28;20476;-55
2022/10/04 00:07:04;;;;;;;1.40;1.20;;;12.70;94.60;;;12.88;59.95;95188.22;5028830;28;20917;-56
2022/10/04 00:09:35;;;;;;;1.93;1.17;;;12.70;94.60;;;12.86;59.63;95190.19;5028253;28;20473;-57
2022/10/04 00:12:02;;;;;;;1.83;1.10;;;12.70;94.60;;;12.85;60.07;95185.06;5028225;28;20556;-57
2022/10/04 00:14:30;;;;;;;5.20;1.67;;;12.70;94.70;;;12.83;60.04;95185.22;5028310;28;20484;-56
2022/10/04 00:16:58;;;;;;;3.57;1.37;;;12.70;94.60;;;12.82;60.10;95191.47;5028073;28;20951;-56
2022/10/04 00:19:44;;;;;;;4.07;1.60;;;12.70;94.60;;;12.82;59.88;95183.53;5028126;28;20468;-55
2022/10/04 00:22:22;;;;;;;6.40;1.87;;;12.70;94.50;;;12.82;59.92;95193.28;5023959;28;20475;-56
2022/10/04 00:25:20;;;;;;;5.73;0.87;;;12.70;94.50;;;12.80;60.27;95177.59;5027528;28;20500;-55
2022/10/04 00:28:27;;;;;;;1.60;1.20;;;12.60;94.40;;;12.80;59.81;95180.22;5025555;28;20528;-56
2022/10/04 00:31:21;;;;;;;1.33;1.10;;;12.60;94.40;;;12.79;59.57;95177.72;5024691;28;20476;-57
2022/10/04 00:33:51;;;;;;;3.17;1.20;;;12.60;94.30;;;12.79;59.68;95175.09;5025711;28;20463;-55
2022/10/04 00:36:54;;;;;;;3.50;1.23;;;12.60;94.40;;;12.76;59.65;95168.28;5027690;28;20456;-57
2022/10/04 00:39:39;;;;;;;11.23;1.40;;;12.60;94.40;;;12.74;59.65;95167.59;5028222;28;20495;-57
2022/10/04 00:42:46;;;;;;;1.10;0.90;;;12.60;94.40;;;12.71;59.91;95159.97;5025080;28;21024;-54
2022/10/04 00:45:27;;;;;;;3.87;1.20;;;12.60;94.40;;;12.68;59.79;95150.53;5028127;28;20496;-57
2022/10/04 00:48:22;;;;;;;1.30;1.10;;;12.50;94.40;;;12.67;59.56;95150.69;5027206;28;20882;-55
2022/10/04 00:50:50;;;;;;;4.20;1.00;;;12.50;94.20;;;12.61;59.61;95149.47;5025634;28;20550;-56
2022/10/04 00:53:38;;;;;;;2.40;1.07;;;12.50;94.30;;;12.60;59.81;95158.34;5027338;28;20483;-56
2022/10/04 00:56:07;;;;;;;1.20;1.00;;;12.50;94.40;;;12.57;59.71;95161.28;5025665;28;20969;-56
2022/10/04 00:58:36;;;;;;;2.10;0.90;;;12.40;94.30;;;12.54;59.90;95154.47;5027406;28;20556;-56
2022/10/04 01:01:03;;;;;;;3.27;1.63;;;12.40;94.30;;;12.52;59.55;95156.44;5027263;28;20480;-55
2022/10/04 01:03:32;;;;;;;7.60;1.17;;;12.40;94.30;;;12.50;60.10;95153.13;5027108;28;20520;-56
2022/10/04 01:06:02;;;;;;;1.37;1.10;;;12.40;94.40;;;12.50;59.55;95153.13;5027493;28;20554;-56
2022/10/04 01:08:32;;;;;;;3.53;0.97;;;12.40;94.40;;;12.49;59.55;95145.34;5027460;28;20456;-55
2022/10/04 01:11:01;;;;;;;2.87;1.00;;;12.40;94.40;;;12.48;60.13;95155.06;5027554;28;20851;-54
2022/10/04 01:13:30;;;;;;;7.60;1.47;;;12.30;94.50;;;12.46;59.85;95146.47;5024559;28;21054;-54
2022/10/04 01:16:00;;;;;;;3.00;1.20;;;12.30;94.50;;;12.44;59.87;95158.97;5027263;28;20476;-56
2022/10/04 01:18:32;;;;;;;1.53;1.00;;;12.30;94.40;;;12.43;59.96;95141.47;5027219;28;20515;-56
2022/10/04 01:21:03;;;;;;;3.63;1.33;;;12.30;94.50;;;12.41;59.89;95147.88;5027821;28;20473;-56
2022/10/04 01:23:42;;;;;;;3.70;1.40;;;12.30;94.50;;;12.40;59.70;95140.94;5027276;28;20448;-56
2022/10/04 01:26:39;;;;;;;1.27;1.17;;;12.20;94.40;;;12.38;59.96;95143.72;5027024;28;20503;-57
2022/10/04 01:29:09;;;;;;;1.73;1.23;;;12.20;94.40;;;12.37;59.74;95147.34;5027174;28;20464;-57
2022/10/04 01:31:39;;;;;;;2.73;0.73;;;12.20;94.40;;;12.34;59.67;95142.34;5027052;28;20461;-57
2022/10/04 01:34:07;;;;;;;1.47;1.20;;;12.20;94.40;;;12.30;59.93;95147.09;5027248;28;20503;-57
2022/10/04 01:36:35;;;;;;;2.73;1.30;;;12.20;94.50;;;12.26;59.84;95145.69;5025907;28;20523;-56
2022/10/04 01:39:03;;;;;;;4.43;1.40;;;12.10;94.40;;;12.22;60.13;95151.41;5026650;28;20478;-56
2022/10/04 01:41:43;;;;;;;1.97;1.30;;;12.10;94.50;;;12.19;59.83;95144.59;5026516;28;20459;-55
2022/10/04 01:44:16;;;;;;;2.83;0.90;;;12.10;94.50;;;12.17;60.11;95143.91;5024679;28;20559;-55
2022/10/04 01:46:44;;;;;;;1.60;1.17;;;12.00;94.60;;;12.12;60.19;95139.06;5022854;28;21024;-55
2022/10/04 01:49:13;;;;;;;5.40;1.57;;;12.00;94.60;;;12.13;60.22;95139.91;5026515;28;20511;-55
2022/10/04 01:51:44;;;;;;;5.23;1.27;;;12.00;94.60;;;12.12;60.42;95143.53;5026641;28;20602;-55
2022/10/04 01:54:14;;;;;;;1.30;1.17;;;12.00;94.60;;;12.10;60.11;95143.66;5025374;28;20523;-54
2022/10/04 01:56:46;;;;;;;2.07;1.20;;;11.90;94.60;;;12.07;60.03;95140.47;5026732;28;20453;-56
2022/10/04 01:59:16;;;;;;;4.80;1.60;;;11.90;94.60;;;12.04;60.07;95140.75;5022718;28;21132;-56
2022/10/04 02:01:47;;;;;;;1.67;1.00;;;11.90;94.60;;;12.02;60.14;95140.88;5025943;28;20465;-57
2022/10/04 02:04:16;;;;;;;1.27;1.10;;;11.90;94.60;;;11.95;60.29;95147.72;5026497;28;20471;-56
2022/10/04 02:06:44;;;;;;;1.30;1.07;;;11.80;94.50;;;11.90;60.23;95148.13;5026207;28;20496;-55
2022/10/04 02:09:15;;;;;;;2.07;1.27;;;11.80;94.60;;;11.87;60.49;95152.81;5026422;28;20483;-56
2022/10/04 02:11:43;;;;;;;1.20;1.10;;;11.80;94.80;;;11.83;60.87;95155.75;5027607;28;20452;-56
2022/10/04 02:14:14;;;;;;;1.17;0.70;;;11.70;94.80;;;11.80;60.77;95149.91;5025879;28;20476;-57
2022/10/04 02:16:42;;;;;;;6.33;1.57;;;11.70;94.80;;;11.75;60.93;95154.78;5026081;28;20522;-57
2022/10/04 02:19:09;;;;;;;1.40;1.17;;;11.60;95.10;;;11.72;60.68;95152.44;5022817;28;20480;-57
2022/10/04 02:21:36;;;;;;;3.17;1.30;;;11.60;95.10;;;11.68;60.78;95157.16;5026297;28;20464;-55
2022/10/04 02:24:04;;;;;;;3.43;1.10;;;11.60;95.30;;;11.65;60.94;95150.34;5026296;28;20460;-55
2022/10/04 02:26:32;;;;;;;1.77;1.27;;;11.60;95.30;;;11.68;61.10;95162.44;5026178;28;20503;-55
2022/10/04 02:29:00;;;;;;;2.40;0.97;;;11.50;95.20;;;11.65;61.07;95157.44;5026267;28;20534;-55
2022/10/04 02:34:12;;;;;;;1.73;1.20;;;11.50;95.30;;;11.61;61.36;95166.56;5024315;28;20503;-56
2022/10/04 02:36:39;;;;;;;1.83;1.40;;;11.50;95.40;;;11.56;61.39;95158.28;5025906;28;20811;-55
2022/10/04 02:39:12;;;;;;;2.00;1.90;;;11.40;95.60;;;11.53;61.72;95159.38;5025737;28;20573;-54
2022/10/04 02:41:43;;;;;;;1.63;1.20;;;11.40;95.50;;;11.52;61.40;95162.13;5025987;28;20449;-56
2022/10/04 02:44:13;;;;;;;3.10;1.10;;;11.40;95.70;;;11.51;61.73;95177.13;5025869;28;20469;-58
2022/10/04 02:46:44;;;;;;;3.07;0.80;;;11.40;95.80;;;11.50;61.76;95169.34;5026009;28;20480;-55
2022/10/04 02:49:16;;;;;;;1.43;1.20;;;11.40;95.90;;;11.50;62.10;95174.63;5031011;28;20467;-56
2022/10/04 02:51:46;;;;;;;3.67;1.03;;;11.40;96.00;;;11.49;62.22;95179.03;5032383;28;20531;-56
2022/10/04 02:54:17;;;;;;;1.53;1.33;;;11.40;96.10;;;11.48;61.99;95178.22;5031996;28;20473;-56
2022/10/04 02:56:51;;;;;;;1.03;0.80;;;11.30;96.00;;;11.45;62.18;95177.66;5032383;28;20452;-55
2022/10/04 02:59:18;;;;;;;1.77;1.30;;;11.30;96.10;;;11.38;62.03;95172.09;5031617;28;20516;-55
2022/10/04 03:01:50;;;;;;;3.30;1.20;;;11.30;96.10;;;11.29;62.30;95170.28;5032903;28;20534;-57
2022/10/04 03:04:19;;;;;;;1.57;1.30;;;11.20;96.10;;;11.22;62.20;95169.19;5032924;28;20472;-57
2022/10/04 03:06:47;;;;;;;1.20;1.10;;;11.10;96.20;;;11.19;62.66;95177.34;5028202;28;20495;-57
2022/10/04 03:09:15;;;;;;;4.20;1.50;;;11.10;96.50;;;11.18;62.98;95194.13;5031741;28;20476;-57
2022/10/04 03:11:42;;;;;;;1.50;1.13;;;11.10;96.70;;;11.13;63.25;95179.53;5031529;28;20503;-55
2022/10/04 03:14:16;;;;;;;8.20;2.50;;;11.00;96.80;;;11.13;63.47;95174.28;5031886;28;20484;-54
2022/10/04 03:16:45;;;;;;;1.83;1.13;;;11.00;97.00;;;11.12;63.51;95180.53;5031562;28;20984;-56
2022/10/04 03:19:13;;;;;;;2.83;1.00;;;11.00;97.10;;;11.13;63.27;95179.53;5032068;28;20483;-55
2022/10/04 03:21:40;;;;;;;2.30;1.47;;;11.00;97.00;;;11.15;63.09;95192.56;5032162;28;20781;-54
2022/10/04 03:24:08;;;;;;;2.13;1.40;;;11.00;97.10;;;11.16;63.24;95194.25;5031416;28;20467;-56
2022/10/04 03:26:38;;;;;;;1.17;1.07;;;11.10;97.20;;;11.18;63.16;95196.75;5031420;28;20502;-55
2022/10/04 03:29:08;;;;;;;4.30;1.20;;;11.00;97.40;;;11.21;63.06;95202.56;5032008;28;20886;-55
2022/10/04 03:31:39;;;;;;;9.47;1.90;;;11.10;97.10;;;11.23;63.14;95200.66;5030678;28;20586;-56
2022/10/04 03:34:06;;;;;;;3.67;1.30;;;11.10;97.10;;;11.27;63.06;95203.84;5028722;28;20452;-55
2022/10/04 03:36:34;;;;;;;2.00;1.10;;;11.10;97.10;;;11.31;62.79;95197.34;5032025;28;20456;-55
2022/10/04 03:39:01;;;;;;;1.43;1.30;;;11.20;97.00;;;11.33;63.64;95211.19;5031502;28;21227;-55
2022/10/04 03:41:28;;;;;;;9.93;1.70;;;11.20;97.50;;;11.39;63.63;95213.28;5028087;28;20934;-54
2022/10/04 03:43:56;;;;;;;2.50;1.17;;;11.20;97.50;;;11.45;62.99;95222.44;5031601;28;20460;-55
2022/10/04 03:46:23;;;;;;;2.33;1.30;;;11.30;97.30;;;11.50;62.55;95222.88;5031794;28;20582;-55
2022/10/04 03:48:53;;;;;;;3.87;1.20;;;11.30;97.20;;;11.54;63.20;95218.13;5031608;28;20476;-58
2022/10/04 03:51:23;;;;;;;2.70;1.93;;;11.40;97.40;;;11.56;62.80;95217.03;5031731;28;20724;-58
2022/10/04 03:53:51;;;;;;;2.63;1.30;;;11.40;97.00;;;11.56;62.60;95221.50;5031871;28;20897;-57
2022/10/04 03:56:22;;;;;;;2.80;1.87;;;11.40;96.90;;;11.53;62.47;95211.22;5027996;28;20456;-56
2022/10/04 03:58:50;;;;;;;4.20;1.60;;;11.40;96.90;;;11.55;62.62;95219.81;5031592;28;20464;-57
2022/10/04 04:01:37;;;;;;;2.77;1.93;;;11.40;96.90;;;11.54;62.77;95215.50;5027886;28;20454;-56
2022/10/04 04:04:15;;;;;;;2.23;1.20;;;11.40;96.90;;;11.55;62.77;95222.44;5028237;28;20547;-56
2022/10/04 04:06:50;;;;;;;3.67;1.40;;;11.40;97.10;;;11.56;62.48;95216.22;5028196;28;20491;-57
2022/10/04 04:09:22;;;;;;;1.50;1.40;;;11.40;96.90;;;11.54;62.69;95224.25;5024919;28;20551;-56
2022/10/04 04:11:50;;;;;;;2.80;1.93;;;11.40;97.00;;;11.52;62.82;95236.72;5026797;28;20535;-57
2022/10/04 04:14:21;;;;;;;2.93;1.67;;;11.40;96.90;;;11.51;62.50;95234.22;5027692;28;20518;-55
2022/10/04 04:16:48;;;;;;;2.10;1.50;;;11.40;96.90;;;11.48;62.27;95244.06;5028457;28;20452;-55
2022/10/04 04:19:18;;;;;;;1.20;1.10;;;11.40;96.90;;;11.48;62.45;95243.25;5028167;28;20973;-56
2022/10/04 04:21:46;;;;;;;3.67;1.53;;;11.30;96.90;;;11.50;62.70;95245.75;5027547;28;20936;-56
2022/10/04 04:24:18;;;;;;;2.10;1.47;;;11.30;96.90;;;11.46;62.59;95247.78;5027898;28;21015;-56
2022/10/04 04:26:47;;;;;;;2.63;1.47;;;11.30;96.90;;;11.44;62.54;95247.13;5027292;28;20489;-55
2022/10/04 04:29:19;;;;;;;1.53;1.43;;;11.30;96.90;;;11.40;62.72;95237.81;5028074;28;20473;-56
2022/10/04 04:31:47;;;;;;;2.27;1.90;;;11.30;96.90;;;11.37;62.63;95249.47;5026884;28;20821;-55
2022/10/04 04:34:21;;;;;;;3.77;1.57;;;11.20;96.80;;;11.34;62.70;95252.38;5023771;28;20473;-56
2022/10/04 04:36:48;;;;;;;1.73;1.63;;;11.20;96.80;;;11.31;62.88;95250.00;5027625;28;20449;-56
2022/10/04 04:39:37;;;;;;;2.53;1.70;;;11.20;96.90;;;11.31;62.72;95247.38;5027652;28;21054;-56
2022/10/04 04:42:11;;;;;;;12.87;2.10;;;11.20;97.00;;;11.26;63.11;95242.50;5020477;28;20476;-57
2022/10/04 04:44:39;;;;;;;2.40;2.00;;;11.20;97.20;;;11.23;62.72;95252.44;5025894;28;20476;-55
2022/10/04 04:47:31;;;;;;;2.93;1.80;;;11.10;97.00;;;11.19;62.97;95265.06;5027750;28;20495;-56
2022/10/04 04:50:05;;;;;;;5.10;2.50;;;11.10;97.20;;;11.17;63.15;95264.38;5024081;28;20883;-57
2022/10/04 04:52:32;;;;;;;7.83;2.87;;;11.10;97.20;;;11.17;63.26;95263.53;5026906;28;20484;-56
2022/10/04 04:54:59;;;;;;;3.63;2.87;;;11.10;97.50;;;11.17;63.32;95263.53;5027551;28;20469;-56
2022/10/04 04:57:27;;;;;;;3.20;2.47;;;11.00;97.50;;;11.17;63.42;95268.78;5027698;28;20457;-54
2022/10/04 04:59:56;;;;;;;9.63;2.13;;;11.00;97.30;;;11.17;63.39;95268.78;5027372;28;20865;-57
2022/10/04 05:02:33;;;;;;;7.10;2.60;;;11.10;97.50;;;11.17;63.34;95269.63;5027222;28;20465;-56
2022/10/04 05:05:23;;;;;;;6.50;2.40;;;11.10;97.50;;;11.18;63.52;95273.09;5027323;28;20464;-58
2022/10/04 05:07:58;;;;;;;10.03;2.53;;;11.10;97.70;;;11.19;63.32;95267.69;5026507;28;20480;-57
2022/10/04 05:10:31;;;;;;;4.47;2.67;;;11.10;97.60;;;11.24;63.29;95276.03;5024090;28;20480;-55
2022/10/04 05:12:59;;;;;;;7.53;2.97;;;11.10;97.70;;;11.28;63.25;95269.53;5026427;28;20839;-55
2022/10/04 05:15:28;;;;;;;15.10;2.60;;;11.10;97.60;;;11.34;63.40;95268.16;5026673;28;20480;-57
2022/10/04 05:17:55;;;;;;;10.30;3.13;;;11.20;97.60;;;11.41;63.15;95277.19;5026783;28;20536;-55
2022/10/04 05:20:24;;;;;;;4.27;1.93;;;11.30;97.60;;;11.44;63.14;95276.91;5026882;28;20523;-57
2022/10/04 05:22:51;;;;;;;6.03;2.60;;;11.30;97.50;;;11.49;63.14;95281.78;5026285;28;20456;-57
2022/10/04 05:25:26;;;;;;;14.50;4.50;;;11.30;97.50;;;11.54;63.07;95282.22;5026893;28;20530;-57
2022/10/04 05:27:54;;;;;;;2.57;2.33;;;11.40;97.40;;;11.62;62.78;95279.72;5024066;28;20933;-56
2022/10/04 05:30:41;;;;;;;2.80;2.60;;;11.50;97.50;;;11.72;62.79;95284.19;5027487;28;20472;-56
2022/10/04 05:33:10;;;;;;;6.53;2.27;;;11.60;97.40;;;11.79;62.53;95283.50;5023602;28;20451;-56
2022/10/04 05:35:53;;;;;;;5.80;2.20;;;11.70;97.20;;;11.89;62.52;95291.41;5026936;28;20476;-56
2022/10/04 05:38:26;;;;;;;5.10;2.70;;;11.70;97.10;;;11.99;63.19;95283.53;5027031;28;20459;-57
2022/10/04 05:40:57;;;;;;;5.30;1.77;;;11.80;97.90;;;12.09;63.02;95292.28;5024578;28;20579;-57
2022/10/04 05:43:32;;;;;;;7.17;2.27;;;11.90;97.80;;;12.25;63.21;95285.63;5026398;28;20460;-55
2022/10/04 05:46:19;;;;;;;1.57;1.47;;;12.00;97.90;;;12.46;62.74;95296.03;5026723;28;20493;-56
2022/10/04 05:48:48;;;;;;;2.87;1.60;;;12.20;97.60;;;12.69;62.44;95300.00;5023693;28;20472;-56
2022/10/04 05:51:21;;;;;;;2.50;1.87;;;12.40;97.80;;;13.02;61.97;95305.75;5026206;28;20480;-55
2022/10/04 05:53:49;;;;;;;3.93;2.07;;;12.70;97.40;;;13.37;61.27;95308.69;5026179;28;20523;-54
2022/10/04 05:56:49;;;;;;;1.63;1.40;;;13.00;97.10;;;13.81;59.94;95314.16;5026198;28;20506;-55
2022/10/04 05:59:32;;;;;;;2.60;1.37;;;13.40;96.50;;;14.22;59.35;95314.59;5023630;28;20771;-55
2022/10/04 06:02:06;;;;;;;1.07;0.97;;;13.80;96.00;;;14.62;58.44;95321.22;5026286;28;20930;-54
2022/10/04 06:04:44;;;;;;;4.40;2.73;;;14.20;95.50;;;15.03;57.89;95333.94;5026393;28;20975;-56
2022/10/04 06:07:20;;;;;;;2.00;1.43;;;14.60;95.00;;;15.42;56.82;95334.31;5025328;28;20476;-55
2022/10/04 06:10:19;;;;;;;5.47;1.83;;;15.00;94.20;;;15.86;55.71;95329.88;5027015;28;20460;-57
2022/10/04 06:12:52;;;;;;;4.37;1.40;;;15.40;93.70;;;16.25;55.40;95340.78;5022374;28;20510;-55
2022/10/04 06:15:50;;;;;;;14.03;1.70;;;15.80;93.20;;;16.66;53.78;95340.78;5025843;28;20476;-55
2022/10/04 06:18:32;;;;;;;1.63;1.47;;;16.20;92.10;;;17.10;53.36;95344.97;5024893;28;20526;-54
2022/10/04 06:21:24;;;;;;;1.40;1.30;;;16.60;91.40;;;17.53;51.84;95339.38;5025788;28;20538;-55
2022/10/04 06:23:58;;;;;;;2.30;1.40;;;17.00;90.60;;;17.90;51.62;95352.06;4993935;28;21004;-55
2022/10/04 06:26:29;;;;;;;1.50;1.40;;;17.40;90.10;;;18.28;48.79;95349.53;5025354;28;20460;-55
2022/10/04 06:28:59;;;;;;;2.30;1.07;;;17.70;85.80;;;18.60;49.82;95357.47;5021696;28;20449;-54
2022/10/04 06:32:09;;;;;;;4.17;1.80;;;18.10;85.70;;;19.06;48.99;95356.66;5025634;28;20479;-56
2022/10/04 06:34:54;;;;;;;2.63;1.10;;;18.50;83.90;;;19.47;47.52;95361.59;5022797;28;20538;-56
2022/10/04 06:37:50;;;;;;;4.03;0.97;;;18.90;83.10;;;19.88;46.31;95345.97;5022039;28;20441;-55
2022/10/04 06:40:31;;;;;;;3.80;1.30;;;19.30;80.40;;;20.30;46.63;95342.75;5024037;28;20580;-55
2022/10/04 06:43:23;;;;;;;2.97;1.03;;;19.70;80.00;;;20.73;44.90;95346.31;5022888;28;20491;-55
2022/10/04 06:46:05;;;;;;;1.73;1.30;;;20.10;75.70;;;21.16;45.36;95353.44;5023867;28;20473;-56
2022/10/04 06:49:13;;;;;;;2.00;1.40;;;20.50;75.60;;;21.60;43.21;95354.22;5023256;28;20481;-56
2022/10/04 06:51:52;;;;;;;3.50;1.63;;;21.00;71.00;;;21.93;43.29;95349.03;5022417;28;20464;-55
2022/10/04 06:54:34;;;;;;;1.80;1.10;;;21.40;70.90;;;22.06;42.54;95364.38;5024804;28;20464;-55
2022/10/04 06:57:30;;;;;;;2.17;0.90;;;21.50;70.50;;;22.11;42.13;95355.72;5024933;28;20476;-60
2022/10/04 07:00:09;;;;;;;3.47;1.30;;;21.70;67.50;;;22.45;41.43;95357.53;5022068;28;21001;-56
2022/10/04 07:02:40;;;;;;;1.93;1.17;;;21.90;67.10;;;22.89;41.86;95358.81;5022999;28;20467;-56
2022/10/04 07:05:15;;;;;;;2.33;1.20;;;22.20;67.10;;;23.27;41.27;95358.25;5025183;28;20477;-56
2022/10/04 07:07:46;;;;;;;2.60;1.30;;;22.60;65.80;;;23.56;41.01;95366.94;5025453;28;20506;-55
2022/10/04 07:10:29;;;;;;;2.90;1.50;;;22.90;64.20;;;23.46;40.71;95358.47;5024740;28;21156;-55
2022/10/04 07:13:11;;;;;;;5.23;0.97;;;22.90;61.70;;;23.15;37.47;95367.16;5021702;28;20468;-58
2022/10/04 07:15:47;;;;;;;4.60;1.40;;;22.70;56.80;;;22.65;41.18;95367.44;5021414;28;20483;-54
2022/10/04 07:18:17;;;;;;;1.60;1.10;;;22.40;60.30;;;22.12;40.89;95368.91;5025258;28;20890;-56
2022/10/04 07:20:44;;;;;;;1.67;0.90;;;22.00;58.40;;;22.05;42.06;95383.31;5021647;28;20475;-55
2022/10/04 07:23:15;;;;;;;3.00;1.20;;;21.80;61.80;;;22.18;40.40;95372.63;5025120;28;20469;-56
2022/10/04 07:25:45;;;;;;;1.40;0.87;;;21.80;59.10;;;22.45;40.41;95378.97;5024900;28;20567;-55
2022/10/04 07:31:04;;;;;;;3.37;1.30;;;22.70;59.90;;;23.88;38.47;95374.31;5022052;28;20533;-57
2022/10/04 07:33:33;;;;;;;4.00;0.63;;;23.50;57.40;;;24.48;36.80;95387.56;5024588;28;20554;-55
2022/10/04 07:36:05;;;;;;;0.93;0.83;;;24.10;54.90;;;25.06;33.60;95373.97;5024174;28;20476;-56
2022/10/04 07:38:33;;;;;;;1.13;1.03;;;24.80;53.00;;;25.50;32.91;95379.47;5028876;28;20791;-55
2022/10/04 07:41:08;;;;;;;1.47;1.37;;;25.30;49.70;;;25.49;34.22;95382.38;5028003;28;20468;-55
2022/10/04 07:43:47;;;;;;;1.00;0.90;;;25.40;49.80;;;25.20;34.88;95384.66;5028565;28;21042;-55
2022/10/04 07:46:24;;;;;;;0.93;0.83;;;25.20;50.20;;;25.05;35.78;95385.78;5028222;28;20559;-56
2022/10/04 07:48:51;;;;;;;2.33;1.00;;;25.10;52.60;;;25.23;35.97;95385.03;5028550;28;20579;-55
2022/10/04 07:51:27;;;;;;;1.67;0.97;;;25.10;52.70;;;25.60;33.46;95387.03;5018941;28;22189;-58
2022/10/04 07:53:55;;;;;;;1.83;1.00;;;25.30;49.50;;;25.64;35.30;95379.34;5020706;28;20965;-56
2022/10/04 07:56:27;;;;;;;1.17;1.07;;;25.40;51.20;;;25.70;33.54;95381.97;5020389;28;20475;-55
2022/10/04 07:59:05;;;;;;;1.80;1.13;;;25.40;49.30;;;25.72;33.21;95382.56;5020417;28;21270;-56
2022/10/04 08:01:37;;;;;;;3.60;1.20;;;25.60;49.20;;;25.65;33.34;95381.00;5019051;28;20455;-56
2022/10/04 08:04:18;;;;;;;5.53;1.40;;;25.40;48.70;;;25.06;34.00;95387.44;5021473;28;20583;-55
2022/10/04 08:06:57;;;;;;;1.43;0.90;;;24.90;46.70;;;24.30;34.39;95397.13;5018036;28;20483;-56
2022/10/04 08:09:37;;;;;;;3.63;1.20;;;24.40;49.30;;;23.60;35.08;95397.69;5020652;28;20468;-53
2022/10/04 08:12:12;;;;;;;2.20;1.10;;;23.70;49.80;;;22.98;35.74;95388.16;5024702;28;20571;-57
2022/10/04 08:15:15;;;;;;;9.30;0.90;;;23.00;50.00;;;22.33;36.04;95389.44;5022112;28;20480;-53
2022/10/04 08:17:50;;;;;;;7.33;1.40;;;22.40;50.80;;;21.87;36.42;95381.16;5024848;28;20449;-57
2022/10/04 08:20:34;;;;;;;3.87;1.00;;;21.80;51.20;;;21.43;37.60;95383.94;5022641;28;20479;-56
2022/10/04 08:23:14;;;;;;;3.90;1.67;;;21.40;52.10;;;21.16;38.08;95395.44;5025282;28;20543;-56
2022/10/04 08:25:46;;;;;;;2.10;0.93;;;21.00;53.00;;;20.96;38.14;95382.72;5022958;28;20946;-57
2022/10/04 08:31:21;;;;;;;1.70;0.87;;;20.60;53.70;;;20.59;39.11;95389.94;5020018;28;20471;-55
2022/10/04 08:33:59;;;;;;;1.70;1.40;;;20.30;54.10;;;20.55;39.39;95388.66;5023390;28;20555;-55
2022/10/04 08:36:38;;;;;;;3.23;1.60;;;20.30;54.70;;;20.99;39.41;95390.38;5017358;28;20467;-59
2022/10/04 08:39:07;;;;;;;4.50;1.03;;;20.60;55.30;;;21.52;39.10;95386.47;5021692;28;20468;-56
2022/10/04 08:42:49;;;;;;;1.40;0.90;;;20.90;55.30;;;22.11;37.81;95379.84;5022637;28;20585;-57
2022/10/04 08:45:47;;;;;;;2.17;1.10;;;21.40;54.50;;;23.05;36.47;95388.97;5021211;28;20485;-55
2022/10/04 08:49:15;;;;;;;2.07;0.97;;;22.30;53.80;;;23.93;35.39;95383.38;5020863;28;21017;-56
2022/10/04 08:52:08;;;;;;;1.60;1.20;;;23.10;52.70;;;24.64;35.42;95376.31;4958430;28;20467;-54
2022/10/04 08:55:38;;;;;;;1.17;0.93;;;23.90;52.30;;;24.74;34.26;95383.94;5023936;28;20476;-57
2022/10/04 08:58:22;;;;;;;1.10;1.00;;;24.10;48.90;;;24.61;34.27;95374.06;4962171;28;21164;-55
2022/10/04 09:00:58;;;;;;;2.70;1.10;;;24.10;49.10;;;24.27;34.55;95380.59;4957976;28;21428;-56
2022/10/04 09:04:22;;;;;;;2.30;0.80;;;24.00;50.20;;;23.70;34.98;95394.59;5002632;28;21078;-55
2022/10/04 09:06:57;;;;;;;3.50;1.20;;;23.50;49.80;;;23.16;34.89;95393.78;5019427;28;20453;-57
2022/10/04 09:10:04;;;;;;;1.13;1.03;;;23.00;49.70;;;22.63;35.48;95390.97;5022105;28;20587;-57
2022/10/04 09:13:34;;;;;;;4.00;1.17;;;22.50;50.20;;;22.11;36.71;95395.91;5022024;28;20531;-56
2022/10/04 09:16:16;;;;;;;1.20;0.97;;;22.00;51.60;;;21.69;37.51;95395.88;4899050;29;20468;-56
2022/10/04 09:18:53;;;;;;;1.43;1.30;;;21.50;51.90;;;21.34;38.06;95390.44;4934182;28;20604;-55
2022/10/04 09:21:28;;;;;;;1.57;0.73;;;21.10;53.10;;;21.00;38.23;95393.88;5003816;28;21009;-55
2022/10/04 09:25:02;;;;;;;1.83;0.83;;;20.80;52.80;;;20.76;38.30;95390.56;5019041;28;20633;-56
2022/10/04 09:27:47;;;;;;;7.30;1.67;;;20.50;53.30;;;20.63;38.92;95396.56;4909174;29;20461;-57
2022/10/04 09:30:18;;;;;;;2.50;1.20;;;20.30;54.00;;;20.56;39.66;95391.16;5020538;28;20460;-56
2022/10/04 09:33:26;;;;;;;7.70;0.80;;;20.30;54.80;;;20.53;39.32;95398.72;5021044;28;20452;-57
2022/10/04 09:36:21;;;;;;;1.47;0.97;;;20.20;54.80;;;20.56;39.25;95396.50;5020673;28;20472;-55
2022/10/04 09:39:35;;;;;;;1.57;1.10;;;20.20;54.70;;;20.78;39.54;95400.03;5020067;28;21002;-56
2022/10/04 09:42:25;;;;;;;2.50;1.00;;;20.40;55.10;;;21.17;39.12;95402.44;4996330;28;20460;-57
2022/10/04 09:45:44;;;;;;;1.13;1.00;;;20.70;55.10;;;21.75;38.09;95394.25;5021692;28;20471;-55
2022/10/04 09:48:37;;;;;;;2.63;1.20;;;21.10;54.80;;;22.31;38.10;95399.53;5020922;28;20547;-58
2022/10/04 09:51:49;;;;;;;3.87;1.17;;;21.70;54.30;;;22.78;37.00;95396.16;5007210;28;20814;-57
2022/10/04 09:54:55;;;;;;;5.63;1.43;;;22.20;53.60;;;23.44;36.52;95396.25;5022013;28;21114;-54
2022/10/04 09:57:36;;;;;;;5.00;1.27;;;22.80;52.30;;;23.95;36.07;95384.03;4999750;28;20464;-56
2022/10/04 10:00:21;;;;;;;3.90;1.00;;;23.30;51.90;;;24.49;35.36;95386.50;5021088;28;20519;-58
2022/10/04 10:03:40;;;;;;;1.20;1.10;;;23.90;51.40;;;25.07;33.90;95390.97;5020022;28;20472;-55
2022/10/04 10:06:22;;;;;;;1.60;1.50;;;24.40;50.00;;;25.41;33.84;95395.06;5020685;28;20542;-55
2022/10/04 10:09:03;;;;;;;1.63;1.00;;;24.80;49.70;;;25.50;32.24;95389.41;5020135;28;20490;-58
2022/10/04 10:15:14;;;;;;;2.70;1.10;;;25.00;48.70;;;25.64;32.72;95396.34;5020102;28;20510;-56
2022/10/04 10:17:45;;;;;;;1.00;0.90;;;25.20;48.50;;;25.90;33.64;95394.41;4977131;28;20468;-56
2022/10/04 10:20:46;;;;;;;1.30;1.10;;;25.40;48.20;;;26.18;30.71;95393.13;5020944;28;20913;-56
2022/10/04 10:23:48;;;;;;;2.27;1.03;;;25.60;47.30;;;26.40;32.13;95390.78;5021998;28;20467;-56
2022/10/04 10:26:42;;;;;;;1.83;1.60;;;25.80;47.00;;;26.48;31.63;95396.69;4999944;28;20476;-55
2022/10/04 10:29:53;;;;;;;1.87;1.23;;;25.90;45.30;;;26.10;32.45;95396.94;5020045;28;20948;-58
2022/10/04 10:32:35;;;;;;;1.97;1.00;;;25.80;46.20;;;25.75;31.82;95387.53;5017403;28;20475;-55
2022/10/04 10:35:25;;;;;;;2.03;1.30;;;25.40;44.80;;;25.25;32.75;95387.50;5018599;28;20468;-53
2022/10/04 10:38:23;;;;;;;1.53;1.30;;;25.00;46.70;;;24.77;33.10;95396.97;5020492;28;20468;-55
2022/10/04 10:41:29;;;;;;;2.77;1.23;;;24.70;47.50;;;24.40;33.83;95402.06;5020304;28;20534;-56
2022/10/04 10:44:09;;;;;;;2.50;0.80;;;24.20;47.50;;;24.07;34.19;95388.72;5020079;28;21291;-55
2022/10/04 10:46:51;;;;;;;2.23;1.20;;;23.80;47.40;;;23.75;33.24;95400.16;5019873;28;20868;-57
2022/10/04 10:49:51;;;;;;;1.83;0.93;;;23.50;47.60;;;23.35;34.01;95400.19;5020396;28;21072;-55
2022/10/04 10:53:28;;;;;;;3.40;1.40;;;23.20;48.10;;;22.90;35.18;95397.22;5018940;28;20472;-55
2022/10/04 10:56:36;;;;;;;2.03;1.20;;;22.70;48.10;;;22.44;36.04;95401.44;5012416;28;20484;-55
2022/10/04 10:59:50;;;;;;;5.77;1.63;;;22.20;49.40;;;22.30;35.76;95391.66;5020930;28;20471;-58
2022/10/04 11:03:17;;;;;;;1.70;1.30;;;22.00;50.00;;;22.49;36.25;95395.47;5020124;28;20456;-54
2022/10/04 11:06:29;;;;;;;11.83;1.47;;;22.00;50.50;;;22.87;35.72;95398.44;4991809;28;20468;-55
2022/10/04 11:09:30;;;;;;;1.87;1.73;;;22.30;49.90;;;23.08;35.48;95389.44;5019447;28;20595;-54
2022/10/04 11:12:46;;;;;;;2.80;1.27;;;22.50;50.10;;;22.99;35.45;95395.16;5023373;28;20464;-56
2022/10/04 11:15:50;;;;;;;1.80;1.50;;;22.50;49.70;;;22.90;35.88;95387.31;5023063;28;20475;-57
2022/10/04 11:18:59;;;;;;;1.40;1.30;;;22.50;50.00;;;22.78;35.39;95388.94;5020609;28;20561;-58
2022/10/04 11:22:15;;;;;;;7.87;1.93;;;22.40;50.20;;;22.48;36.39;95393.78;5022459;28;20464;-53
2022/10/04 11:25:10;;;;;;;2.03;1.93;;;22.20;50.40;;;22.16;36.60;95388.91;5023074;28;20560;-57
2022/10/04 11:27:48;;;;;;;3.60;1.30;;;21.90;50.70;;;21.98;36.87;95385.94;5016208;28;20517;-54